createdAt,value
2022-12-11T00:00:27.743Z,0.20
2022-12-11T00:02:54.608Z,0.10
2022-12-11T00:05:21.436Z,0.10
2022-12-11T00:07:48.266Z,0.10
2022-12-11T00:10:15.199Z,0.10
2022-12-11T00:12:41.963Z,0.10
2022-12-11T00:15:09.504Z,0.20
2022-12-11T00:17:36.640Z,0.20
2022-12-11T00:20:05.095Z,0.20
2022-12-11T00:22:32.164Z,0.30
2022-12-11T00:24:58.925Z,0.20
2022-12-11T00:27:25.747Z,0.20
2022-12-11T00:29:52.542Z,0.20
2022-12-11T00:32:19.330Z,0.20
2022-12-11T00:34:46.197Z,0.20
2022-12-11T00:37:13.006Z,0.20
2022-12-11T00:39:39.958Z,0.10
2022-12-11T00:42:08.371Z,0.30
2022-12-11T00:44:35.825Z,0.20
2022-12-11T00:47:02.889Z,0.10
2022-12-11T00:49:29.992Z,0.20
2022-12-11T00:51:56.780Z,0.00
2022-12-11T00:54:23.583Z,0.00
2022-12-11T00:56:50.894Z,0.10
2022-12-11T00:59:17.691Z,-0.10
2022-12-11T01:01:44.565Z,-0.10
2022-12-11T01:04:11.398Z,-0.20
2022-12-11T01:06:39.578Z,-0.20
2022-12-11T01:09:24.940Z,-0.20
2022-12-11T01:11:52.516Z,-0.30
2022-12-11T01:14:19.758Z,-0.20
2022-12-11T01:16:46.716Z,-0.40
2022-12-11T01:19:13.606Z,-0.40
2022-12-11T01:21:41.218Z,-0.40
2022-12-11T01:24:08.155Z,-0.40
2022-12-11T01:26:38.002Z,-0.40
2022-12-11T01:29:04.821Z,-0.40
2022-12-11T01:31:31.708Z,-0.40
2022-12-11T01:33:58.554Z,-0.40
2022-12-11T01:36:25.401Z,-0.40
2022-12-11T01:38:54.319Z,-0.40
2022-12-11T01:41:21.709Z,-0.40
2022-12-11T01:44:02.209Z,-0.50
2022-12-11T01:46:30.817Z,-0.40
2022-12-11T01:48:59.172Z,-0.40
2022-12-11T01:51:28.519Z,-0.40
2022-12-11T01:54:01.970Z,-0.40
2022-12-11T01:56:32.570Z,-0.40
2022-12-11T01:59:07.177Z,-0.40
2022-12-11T02:01:40.802Z,-0.40
2022-12-11T02:04:09.133Z,-0.30
2022-12-11T02:06:41.396Z,-0.40
2022-12-11T02:09:13.181Z,-0.40
2022-12-11T02:12:00.963Z,-0.50
2022-12-11T02:15:04.024Z,-0.40
2022-12-11T02:17:56.423Z,-0.40
2022-12-11T02:20:46.141Z,-0.50
2022-12-11T02:23:12.843Z,-0.50
2022-12-11T02:26:20.006Z,-0.50
2022-12-11T02:28:54.173Z,-0.50
2022-12-11T02:31:32.244Z,-0.50
2022-12-11T02:34:01.636Z,-0.50
2022-12-11T02:36:34.574Z,-0.50
2022-12-11T02:39:03.637Z,-0.50
2022-12-11T02:41:32.710Z,-0.50
2022-12-11T02:44:02.106Z,-0.50
2022-12-11T02:46:30.652Z,-0.50
2022-12-11T02:48:58.343Z,-0.50
2022-12-11T02:51:32.592Z,-0.30
2022-12-11T02:53:59.914Z,-0.50
2022-12-11T02:56:44.985Z,-0.50
2022-12-11T02:59:19.034Z,-0.50
2022-12-11T03:01:47.020Z,-0.60
2022-12-11T03:04:14.272Z,-0.50
2022-12-11T03:06:46.817Z,-0.50
2022-12-11T03:09:13.854Z,-0.50
2022-12-11T03:11:40.787Z,-0.50
2022-12-11T03:14:08.447Z,-0.60
2022-12-11T03:16:41.707Z,-0.60
2022-12-11T03:19:21.387Z,-0.60
2022-12-11T03:22:12.299Z,-0.60
2022-12-11T03:24:50.970Z,-0.50
2022-12-11T03:27:35.501Z,-0.50
2022-12-11T03:30:23.617Z,-0.50
2022-12-11T03:33:16.343Z,-0.60
2022-12-11T03:35:48.576Z,-0.60
2022-12-11T03:38:43.898Z,-0.60
2022-12-11T03:41:13.152Z,-0.60
2022-12-11T03:43:41.085Z,-0.60
2022-12-11T03:46:10.145Z,-0.60
2022-12-11T03:48:42.304Z,-0.60
2022-12-11T03:51:09.777Z,-0.60
2022-12-11T03:53:38.575Z,-0.60
2022-12-11T03:56:08.348Z,-0.60
2022-12-11T03:58:35.438Z,-0.60
2022-12-11T04:01:02.321Z,-0.60
2022-12-11T04:03:29.225Z,-0.70
2022-12-11T04:05:56.410Z,-0.70
2022-12-11T04:08:23.982Z,-0.70
2022-12-11T04:11:10.472Z,-0.70
2022-12-11T04:13:37.748Z,-0.70
2022-12-11T04:16:04.870Z,-0.80
2022-12-11T04:18:50.304Z,-0.80
2022-12-11T04:21:39.417Z,-0.90
2022-12-11T04:24:16.212Z,-0.90
2022-12-11T04:26:45.046Z,-0.90
2022-12-11T04:29:12.351Z,-1.00
2022-12-11T04:31:39.285Z,-1.00
2022-12-11T04:34:06.451Z,-1.00
2022-12-11T04:36:33.328Z,-1.10
2022-12-11T04:39:00.131Z,-1.20
2022-12-11T04:41:27.023Z,-1.20
2022-12-11T04:43:53.836Z,-1.20
2022-12-11T04:46:22.881Z,-1.30
2022-12-11T04:48:56.748Z,-1.30
2022-12-11T04:51:24.400Z,-1.30
2022-12-11T04:53:51.252Z,-1.40
2022-12-11T04:56:18.188Z,-1.40
2022-12-11T04:58:47.209Z,-1.40
2022-12-11T05:01:17.020Z,-1.40
2022-12-11T05:03:44.534Z,-1.50
2022-12-11T05:06:12.826Z,-1.40
2022-12-11T05:08:41.823Z,-1.40
2022-12-11T05:11:10.778Z,-1.40
2022-12-11T05:13:37.553Z,-1.40
2022-12-11T05:16:05.909Z,-1.40
2022-12-11T05:18:32.811Z,-1.40
2022-12-11T05:21:02.067Z,-1.40
2022-12-11T05:23:29.788Z,-1.40
2022-12-11T05:26:03.531Z,-1.40
2022-12-11T05:28:33.830Z,-1.50
2022-12-11T05:31:04.685Z,-1.50
2022-12-11T05:33:31.688Z,-1.60
2022-12-11T05:35:58.691Z,-1.60
2022-12-11T05:38:25.731Z,-1.60
2022-12-11T05:41:01.054Z,-1.50
2022-12-11T05:43:29.970Z,-1.50
2022-12-11T05:46:04.531Z,-1.50
2022-12-11T05:48:31.259Z,-1.60
2022-12-11T05:51:02.565Z,-1.60
2022-12-11T05:53:29.721Z,-1.50
2022-12-11T05:56:06.507Z,-1.50
2022-12-11T05:58:34.003Z,-1.50
2022-12-11T06:01:01.595Z,-1.50
2022-12-11T06:03:28.713Z,-1.60
2022-12-11T06:05:55.858Z,-1.60
2022-12-11T06:08:22.898Z,-1.60
2022-12-11T06:10:50.623Z,-1.60
2022-12-11T06:13:18.370Z,-1.70
2022-12-11T06:15:45.262Z,-1.80
2022-12-11T06:18:12.087Z,-1.80
2022-12-11T06:20:39.430Z,-1.70
2022-12-11T06:23:06.369Z,-1.70
2022-12-11T06:25:33.887Z,-1.70
2022-12-11T06:28:00.867Z,-1.70
2022-12-11T06:30:38.442Z,-1.80
2022-12-11T06:33:06.891Z,-1.90
2022-12-11T06:35:38.741Z,-2.00
2022-12-11T06:38:09.335Z,-1.90
2022-12-11T06:40:36.163Z,-1.90
2022-12-11T06:43:05.428Z,-1.90
2022-12-11T06:45:32.375Z,-1.90
2022-12-11T06:47:59.280Z,-1.90
2022-12-11T06:50:26.464Z,-1.80
2022-12-11T06:52:53.380Z,-1.60
2022-12-11T06:55:20.263Z,-1.70
2022-12-11T06:57:47.160Z,-1.70
2022-12-11T07:00:14.796Z,-1.70
2022-12-11T07:02:41.601Z,-1.60
2022-12-11T07:05:08.801Z,-1.60
2022-12-11T07:07:35.902Z,-1.60
2022-12-11T07:10:08.048Z,-1.70
2022-12-11T07:12:35.832Z,-1.70
2022-12-11T07:15:03.302Z,-1.70
2022-12-11T07:17:30.166Z,-1.70
2022-12-11T07:19:57.480Z,-1.70
2022-12-11T07:22:24.521Z,-1.70
2022-12-11T07:24:51.389Z,-1.80
2022-12-11T07:27:18.341Z,-1.80
2022-12-11T07:29:45.221Z,-1.70
2022-12-11T07:32:12.212Z,-1.80
2022-12-11T07:34:39.203Z,-1.70
2022-12-11T07:37:06.140Z,-1.70
2022-12-11T07:39:34.896Z,-1.70
2022-12-11T07:42:01.677Z,-1.70
2022-12-11T07:44:28.485Z,-1.70
2022-12-11T07:46:55.321Z,-1.70
2022-12-11T07:49:22.129Z,-1.60
2022-12-11T07:51:48.971Z,-1.10
2022-12-11T07:54:17.037Z,-1.40
2022-12-11T07:56:46.495Z,-1.50
2022-12-11T07:59:16.952Z,-1.50
2022-12-11T08:01:44.246Z,-1.50
2022-12-11T08:04:12.303Z,-1.50
2022-12-11T08:06:40.587Z,-1.40
2022-12-11T08:09:11.946Z,-1.30
2022-12-11T08:11:40.502Z,-1.30
2022-12-11T08:14:08.748Z,-1.30
2022-12-11T08:16:35.722Z,-1.20
2022-12-11T08:19:02.647Z,-1.20
2022-12-11T08:21:29.534Z,-1.30
2022-12-11T08:23:56.539Z,-1.30
2022-12-11T08:26:27.441Z,-1.20
2022-12-11T08:28:54.410Z,-1.10
2022-12-11T08:31:21.906Z,-1.30
2022-12-11T08:33:49.412Z,-1.10
2022-12-11T08:36:19.164Z,-1.10
2022-12-11T08:38:46.857Z,-1.30
2022-12-11T08:41:19.615Z,-1.20
2022-12-11T08:43:46.738Z,-1.00
2022-12-11T08:46:14.785Z,-1.00
2022-12-11T08:48:43.007Z,-0.60
2022-12-11T08:51:14.826Z,-0.80
2022-12-11T08:53:42.322Z,-0.90
2022-12-11T08:56:11.918Z,-0.70
2022-12-11T08:58:38.763Z,-0.80
2022-12-11T09:01:12.810Z,-0.90
2022-12-11T09:03:40.229Z,-0.90
2022-12-11T09:06:13.126Z,-0.70
2022-12-11T09:08:40.559Z,-0.70
2022-12-11T09:11:10.236Z,-0.60
2022-12-11T09:13:37.577Z,-0.60
2022-12-11T09:16:06.608Z,-0.40
2022-12-11T09:18:33.509Z,-0.50
2022-12-11T09:21:02.105Z,-0.70
2022-12-11T09:23:29.148Z,-0.80
2022-12-11T09:25:56.488Z,-0.70
2022-12-11T09:28:23.613Z,-0.70
2022-12-11T09:30:50.976Z,-0.50
2022-12-11T09:33:18.416Z,-0.50
2022-12-11T09:35:45.241Z,-0.40
2022-12-11T09:38:12.062Z,-0.30
2022-12-11T09:40:43.361Z,-0.30
2022-12-11T09:43:31.580Z,-0.10
2022-12-11T09:46:03.196Z,-0.10
2022-12-11T09:48:33.081Z,-0.10
2022-12-11T09:51:06.483Z,-0.10
2022-12-11T09:53:36.482Z,-0.20
2022-12-11T09:56:22.918Z,-0.10
2022-12-11T09:59:09.800Z,0.00
2022-12-11T10:01:48.626Z,-0.30
2022-12-11T10:04:45.963Z,-0.30
2022-12-11T10:07:19.010Z,-0.10
2022-12-11T10:09:59.401Z,-0.10
2022-12-11T10:12:50.809Z,0.10
2022-12-11T10:15:23.579Z,0.00
2022-12-11T10:17:53.923Z,-0.20
2022-12-11T10:20:39.347Z,-0.20
2022-12-11T10:23:16.790Z,-0.10
2022-12-11T10:25:53.461Z,-0.20
2022-12-11T10:28:21.149Z,-0.20
2022-12-11T10:30:57.008Z,-0.20
2022-12-11T10:33:34.677Z,-0.30
2022-12-11T10:36:01.534Z,-0.30
2022-12-11T10:38:37.197Z,-0.30
2022-12-11T10:41:05.655Z,-0.30
2022-12-11T10:43:42.432Z,-0.30
2022-12-11T10:46:17.824Z,-0.20
2022-12-11T10:48:53.510Z,-0.50
2022-12-11T10:51:24.266Z,-0.40
2022-12-11T10:54:02.630Z,-0.40
2022-12-11T10:56:38.043Z,-0.60
2022-12-11T10:59:05.220Z,-0.60
2022-12-11T11:01:34.626Z,-0.40
2022-12-11T11:04:19.044Z,-0.50
2022-12-11T11:06:45.917Z,-0.50
2022-12-11T11:09:33.855Z,-0.30
2022-12-11T11:12:05.972Z,-0.20
2022-12-11T11:14:34.610Z,-0.30
2022-12-11T11:17:01.688Z,-0.40
2022-12-11T11:19:34.958Z,-0.40
2022-12-11T11:22:08.615Z,-0.60
2022-12-11T11:24:56.708Z,-0.60
2022-12-11T11:27:34.589Z,-0.60
2022-12-11T11:30:05.313Z,-0.60
2022-12-11T11:32:39.025Z,-0.50
2022-12-11T11:35:27.156Z,-0.40
2022-12-11T11:38:02.295Z,-0.60
2022-12-11T11:40:38.027Z,-0.50
2022-12-11T11:43:37.827Z,-0.40
2022-12-11T11:46:23.448Z,-0.50
2022-12-11T11:48:59.082Z,-0.70
2022-12-11T11:51:39.719Z,-0.70
2022-12-11T11:54:25.363Z,-0.80
2022-12-11T11:56:54.256Z,-0.80
2022-12-11T11:59:23.930Z,-0.90
2022-12-11T12:01:53.979Z,-0.90
2022-12-11T12:04:20.887Z,-0.80
2022-12-11T12:07:14.971Z,-0.80
2022-12-11T12:09:41.805Z,-0.90
2022-12-11T12:12:11.719Z,-1.00
2022-12-11T12:15:20.106Z,-0.90
2022-12-11T12:17:55.944Z,-1.00
2022-12-11T12:20:58.779Z,-0.80
2022-12-11T12:23:43.253Z,-0.30
2022-12-11T12:26:33.845Z,-0.80
2022-12-11T12:29:18.467Z,-0.60
2022-12-11T12:31:55.742Z,-0.50
2022-12-11T12:34:43.886Z,-0.10
2022-12-11T12:37:21.914Z,0.00
2022-12-11T12:40:14.879Z,0.10
2022-12-11T12:42:59.772Z,0.00
2022-12-11T12:45:32.395Z,0.20
2022-12-11T12:47:59.887Z,0.10
2022-12-11T12:50:43.291Z,0.10
2022-12-11T12:53:17.631Z,0.20
2022-12-11T12:55:45.571Z,0.10
2022-12-11T12:58:27.700Z,-0.10
2022-12-11T13:00:55.337Z,0.00
2022-12-11T13:03:32.937Z,-0.10
2022-12-11T13:06:06.044Z,0.00
2022-12-11T13:08:46.270Z,0.10
2022-12-11T13:11:16.011Z,0.00
2022-12-11T13:14:04.195Z,0.10
2022-12-11T13:16:39.986Z,0.40
2022-12-11T13:19:28.094Z,0.20
2022-12-11T13:21:56.223Z,-0.10
2022-12-11T13:24:22.962Z,-0.30
2022-12-11T13:26:50.724Z,-0.40
2022-12-11T13:29:37.753Z,-0.30
2022-12-11T13:32:10.740Z,-0.20
2022-12-11T13:34:42.563Z,-0.30
2022-12-11T13:37:31.879Z,-0.20
2022-12-11T13:39:59.624Z,-0.40
2022-12-11T13:42:36.953Z,-0.40
2022-12-11T13:45:05.139Z,-0.40
2022-12-11T13:47:33.128Z,-0.40
2022-12-11T13:50:22.597Z,-0.50
2022-12-11T13:53:02.541Z,-0.40
2022-12-11T13:55:32.459Z,-0.40
2022-12-11T13:57:59.726Z,-0.50
2022-12-11T14:00:32.788Z,-0.50
2022-12-11T14:03:03.082Z,-0.50
2022-12-11T14:05:30.037Z,-0.40
2022-12-11T14:08:02.436Z,-0.40
2022-12-11T14:10:32.496Z,-0.30
2022-12-11T14:13:12.622Z,-0.30
2022-12-11T14:15:45.013Z,-0.30
2022-12-11T14:18:27.319Z,-0.30
2022-12-11T14:21:07.245Z,-0.60
2022-12-11T14:23:37.427Z,-0.90
2022-12-11T14:26:18.192Z,-1.30
2022-12-11T14:28:45.092Z,-1.60
2022-12-11T14:31:16.800Z,-1.80
2022-12-11T14:33:54.558Z,-1.80
2022-12-11T14:36:22.785Z,-1.80
2022-12-11T14:39:02.153Z,-1.90
2022-12-11T14:42:00.733Z,-1.60
2022-12-11T14:44:31.273Z,-1.50
2022-12-11T14:47:03.188Z,-1.50
2022-12-11T14:49:38.583Z,-1.50
2022-12-11T14:52:06.332Z,-1.50
2022-12-11T14:54:46.592Z,-1.40
2022-12-11T14:57:21.121Z,-1.50
2022-12-11T14:59:53.254Z,-1.60
2022-12-11T15:02:35.538Z,-1.50
2022-12-11T15:05:02.579Z,-1.70
2022-12-11T15:07:29.890Z,-1.50
2022-12-11T15:09:56.826Z,-1.60
2022-12-11T15:12:24.307Z,-1.60
2022-12-11T15:14:58.310Z,-1.80
2022-12-11T15:17:26.174Z,-1.60
2022-12-11T15:20:08.207Z,-1.90
2022-12-11T15:22:37.004Z,-2.00
2022-12-11T15:25:04.445Z,-1.90
2022-12-11T15:27:39.653Z,-2.20
2022-12-11T15:30:21.549Z,-2.30
2022-12-11T15:32:48.495Z,-2.50
2022-12-11T15:35:28.428Z,-2.50
2022-12-11T15:37:57.329Z,-2.60
2022-12-11T15:40:25.223Z,-2.70
2022-12-11T15:42:55.668Z,-2.80
2022-12-11T15:45:26.277Z,-2.80
2022-12-11T15:47:53.311Z,-2.80
2022-12-11T15:50:26.080Z,-2.90
2022-12-11T15:52:54.972Z,-2.90
2022-12-11T15:55:26.111Z,-2.90
2022-12-11T15:57:56.547Z,-2.90
2022-12-11T16:00:24.140Z,-3.00
2022-12-11T16:02:52.115Z,-3.00
2022-12-11T16:05:19.264Z,-3.00
2022-12-11T16:07:46.332Z,-3.10
2022-12-11T16:10:17.562Z,-3.10
2022-12-11T16:12:45.017Z,-3.10
2022-12-11T16:15:15.285Z,-3.10
2022-12-11T16:17:44.426Z,-3.20
2022-12-11T16:20:13.384Z,-3.20
2022-12-11T16:22:40.153Z,-3.10
2022-12-11T16:25:07.990Z,-3.10
2022-12-11T16:27:34.872Z,-3.10
2022-12-11T16:30:01.724Z,-3.00
2022-12-11T16:32:28.508Z,-2.70
2022-12-11T16:34:57.987Z,-2.90
2022-12-11T16:37:24.822Z,-2.90
2022-12-11T16:39:51.594Z,-2.70
2022-12-11T16:42:18.416Z,-2.70
2022-12-11T16:44:45.193Z,-2.70
2022-12-11T16:47:12.033Z,-2.60
2022-12-11T16:49:38.822Z,-2.60
2022-12-11T16:52:05.686Z,-2.50
2022-12-11T16:54:32.613Z,-2.50
2022-12-11T16:56:59.374Z,-2.40
2022-12-11T16:59:26.406Z,-2.30
2022-12-11T17:01:53.345Z,-2.10
2022-12-11T17:04:20.318Z,-2.10
2022-12-11T17:06:47.114Z,-2.20
2022-12-11T17:09:14.962Z,-2.30
2022-12-11T17:11:41.902Z,-2.40
2022-12-11T17:14:12.602Z,-2.40
2022-12-11T17:16:39.469Z,-2.50
2022-12-11T17:19:07.413Z,-2.40
2022-12-11T17:21:34.279Z,-2.40
2022-12-11T17:24:01.422Z,-2.50
2022-12-11T17:26:28.701Z,-2.50
2022-12-11T17:28:56.901Z,-2.50
2022-12-11T17:31:26.183Z,-2.50
2022-12-11T17:33:54.122Z,-2.50
2022-12-11T17:36:22.091Z,-2.50
2022-12-11T17:38:49.896Z,-2.50
2022-12-11T17:41:20.773Z,-2.50
2022-12-11T17:43:49.300Z,-2.50
2022-12-11T17:46:16.763Z,-2.50
2022-12-11T17:48:43.833Z,-2.50
2022-12-11T17:51:13.244Z,-2.50
2022-12-11T17:53:40.368Z,-2.50
2022-12-11T17:56:08.599Z,-2.60
2022-12-11T17:58:35.885Z,-2.60
2022-12-11T18:01:07.889Z,-2.60
2022-12-11T18:03:35.433Z,-2.60
2022-12-11T18:06:10.121Z,-2.70
2022-12-11T18:08:37.432Z,-2.70
2022-12-11T18:11:07.273Z,-2.70
2022-12-11T18:13:34.723Z,-2.70
2022-12-11T18:16:17.404Z,-2.70
2022-12-11T18:18:46.221Z,-2.60
2022-12-11T18:21:14.718Z,-2.70
2022-12-11T18:23:41.937Z,-2.70
2022-12-11T18:26:09.021Z,-2.60
2022-12-11T18:28:36.004Z,-2.70
2022-12-11T18:31:04.105Z,-2.70
2022-12-11T18:33:32.208Z,-2.70
2022-12-11T18:35:59.048Z,-2.70
2022-12-11T18:38:25.960Z,-2.30
2022-12-11T18:40:52.736Z,-2.50
2022-12-11T18:43:19.533Z,-2.60
2022-12-11T18:45:46.453Z,-2.60
2022-12-11T18:48:14.074Z,-2.60
2022-12-11T18:50:45.387Z,-2.70
2022-12-11T18:53:12.469Z,-2.70
2022-12-11T18:55:44.131Z,-2.70
2022-12-11T18:58:11.989Z,-2.70
2022-12-11T19:00:40.302Z,-2.70
2022-12-11T19:03:08.152Z,-2.70
2022-12-11T19:05:35.719Z,-2.60
2022-12-11T19:08:03.733Z,-2.70
2022-12-11T19:10:30.549Z,-2.60
2022-12-11T19:12:57.394Z,-2.70
2022-12-11T19:15:24.450Z,-2.70
2022-12-11T19:17:51.547Z,-2.70
2022-12-11T19:20:47.449Z,-2.70
2022-12-11T19:23:06.094Z,-2.50
2022-12-11T19:25:33.219Z,-2.70
2022-12-11T19:28:00.497Z,-2.60
2022-12-11T19:30:27.418Z,-2.50
2022-12-11T19:32:54.217Z,-2.50
2022-12-11T19:35:20.998Z,-2.50
2022-12-11T19:37:47.816Z,-2.50
2022-12-11T19:40:14.960Z,-2.50
2022-12-11T19:42:42.478Z,-2.50
2022-12-11T19:45:10.841Z,-2.40
2022-12-11T19:47:38.035Z,-2.50
2022-12-11T19:50:05.286Z,-2.60
2022-12-11T19:52:32.193Z,-2.50
2022-12-11T19:55:06.584Z,-2.60
2022-12-11T19:57:34.127Z,-2.60
2022-12-11T20:00:01.643Z,-2.70
2022-12-11T20:02:28.631Z,-2.80
2022-12-11T20:04:55.453Z,-2.70
2022-12-11T20:07:27.456Z,-2.80
2022-12-11T20:09:57.498Z,-2.70
2022-12-11T20:12:24.489Z,-2.70
2022-12-11T20:14:51.319Z,-2.70
2022-12-11T20:17:18.191Z,-2.80
2022-12-11T20:19:45.111Z,-2.80
2022-12-11T20:22:12.087Z,-2.80
2022-12-11T20:24:39.028Z,-2.80
2022-12-11T20:27:05.969Z,-2.70
2022-12-11T20:29:32.785Z,-2.70
2022-12-11T20:32:00.468Z,-2.90
2022-12-11T20:34:27.750Z,-2.60
2022-12-11T20:36:55.639Z,-3.00
2022-12-11T20:39:22.588Z,-3.10
2022-12-11T20:41:52.022Z,-3.10
2022-12-11T20:44:20.158Z,-3.20
2022-12-11T20:46:46.996Z,-3.20
2022-12-11T20:49:13.879Z,-3.30
2022-12-11T20:51:41.159Z,-3.30
2022-12-11T20:54:08.392Z,-3.30
2022-12-11T20:56:35.335Z,-3.20
2022-12-11T20:59:02.446Z,-2.50
2022-12-11T21:01:32.262Z,-3.20
2022-12-11T21:04:02.578Z,-3.20
2022-12-11T21:06:31.288Z,-3.20
2022-12-11T21:09:01.132Z,-3.20
2022-12-11T21:11:28.104Z,-3.10
2022-12-11T21:13:55.401Z,-3.20
2022-12-11T21:16:22.995Z,-3.20
2022-12-11T21:18:49.927Z,-3.20
2022-12-11T21:21:17.682Z,-3.20
2022-12-11T21:23:44.858Z,-3.10
2022-12-11T21:26:12.355Z,-3.10
2022-12-11T21:28:39.697Z,-3.10
2022-12-11T21:31:09.959Z,-3.10
2022-12-11T21:33:36.842Z,-3.00
2022-12-11T21:36:05.897Z,-3.00
2022-12-11T21:38:33.198Z,-3.00
2022-12-11T21:41:11.365Z,-3.00
2022-12-11T21:44:00.180Z,-3.00
2022-12-11T21:46:28.040Z,-3.00
2022-12-11T21:48:54.979Z,-3.00
2022-12-11T21:51:36.217Z,-3.00
2022-12-11T21:54:06.758Z,-3.00
2022-12-11T21:56:33.988Z,-3.00
2022-12-11T21:59:01.563Z,-3.00
2022-12-11T22:01:32.281Z,-3.00
2022-12-11T22:03:59.582Z,-3.00
2022-12-11T22:06:26.379Z,-2.90
2022-12-11T22:08:53.538Z,-2.90
2022-12-11T22:11:23.388Z,-2.90
2022-12-11T22:13:50.386Z,-2.90
2022-12-11T22:16:17.411Z,-2.90
2022-12-11T22:18:44.483Z,-2.90
2022-12-11T22:21:11.480Z,-2.90
2022-12-11T22:23:42.476Z,-2.90
2022-12-11T22:26:15.769Z,-2.90
2022-12-11T22:28:42.715Z,-2.80
2022-12-11T22:31:14.247Z,-2.90
2022-12-11T22:33:41.371Z,-2.80
2022-12-11T22:36:09.991Z,-2.80
2022-12-11T22:38:36.942Z,-2.80
2022-12-11T22:41:11.909Z,-2.80
2022-12-11T22:43:38.937Z,-2.80
2022-12-11T22:46:05.903Z,-2.70
2022-12-11T22:48:32.885Z,-2.80
2022-12-11T22:51:03.967Z,-2.70
2022-12-11T22:53:30.746Z,-2.80
2022-12-11T22:55:57.566Z,-2.80
2022-12-11T22:58:24.410Z,-2.80
2022-12-11T23:00:51.215Z,-2.80
2022-12-11T23:03:18.058Z,-2.70
2022-12-11T23:05:44.841Z,-2.70
2022-12-11T23:08:11.722Z,-2.70
2022-12-11T23:10:41.028Z,-2.70
2022-12-11T23:13:07.841Z,-2.80
2022-12-11T23:15:34.832Z,-2.70
2022-12-11T23:18:02.060Z,-2.80
2022-12-11T23:20:28.922Z,-2.70
2022-12-11T23:22:55.780Z,-2.80
2022-12-11T23:25:22.727Z,-2.80
2022-12-11T23:27:49.760Z,-2.80
2022-12-11T23:30:16.628Z,-2.70
2022-12-11T23:32:43.384Z,-2.80
2022-12-11T23:35:10.636Z,-2.70
2022-12-11T23:37:37.651Z,-2.70
2022-12-11T23:40:05.283Z,-2.80
2022-12-11T23:42:33.267Z,-2.80
2022-12-11T23:45:00.026Z,-2.70
2022-12-11T23:47:26.799Z,-2.70
2022-12-11T23:49:53.637Z,-2.70
2022-12-11T23:52:22.585Z,-2.80
2022-12-11T23:54:49.433Z,-2.70
2022-12-11T23:57:16.215Z,-2.70
2022-12-11T23:59:43.016Z,-2.80
